sensor_id;sensor_type;location;lat;lon;timestamp;P1;durP1;ratioP1;P2;durP2;ratioP2
6973;SDS011;3527;52.376;8.990;2023-02-28T00:01:10;8.23;;;5.97;;
6973;SDS011;3527;52.376;8.990;2023-02-28T00:03:38;8.27;;;6.33;;
6973;SDS011;3527;52.376;8.990;2023-02-28T00:06:05;10.67;;;6.20;;
6973;SDS011;3527;52.376;8.990;2023-02-28T00:08:33;8.33;;;6.13;;
6973;SDS011;3527;52.376;8.990;2023-02-28T00:11:00;12.23;;;6.30;;
6973;SDS011;3527;52.376;8.990;2023-02-28T00:13:33;9.30;;;5.87;;
6973;SDS011;3527;52.376;8.990;2023-02-28T00:16:04;12.33;;;6.83;;
6973;SDS011;3527;52.376;8.990;2023-02-28T00:18:33;12.50;;;7.00;;
6973;SDS011;3527;52.376;8.990;2023-02-28T00:21:00;9.70;;;6.10;;
6973;SDS011;3527;52.376;8.990;2023-02-28T00:23:27;8.97;;;6.03;;
6973;SDS011;3527;52.376;8.990;2023-02-28T00:25:54;9.47;;;6.27;;
6973;SDS011;3527;52.376;8.990;2023-02-28T00:28:21;11.13;;;7.30;;
6973;SDS011;3527;52.376;8.990;2023-02-28T00:30:48;13.27;;;7.70;;
6973;SDS011;3527;52.376;8.990;2023-02-28T00:33:15;12.90;;;7.83;;
6973;SDS011;3527;52.376;8.990;2023-02-28T00:35:42;14.90;;;7.57;;
6973;SDS011;3527;52.376;8.990;2023-02-28T00:38:13;14.23;;;9.00;;
6973;SDS011;3527;52.376;8.990;2023-02-28T00:40:40;13.30;;;8.33;;
6973;SDS011;3527;52.376;8.990;2023-02-28T00:43:07;18.63;;;9.73;;
6973;SDS011;3527;52.376;8.990;2023-02-28T00:45:33;15.57;;;7.83;;
6973;SDS011;3527;52.376;8.990;2023-02-28T00:48:00;12.53;;;8.37;;
6973;SDS011;3527;52.376;8.990;2023-02-28T00:50:27;14.17;;;9.20;;
6973;SDS011;3527;52.376;8.990;2023-02-28T00:52:54;13.00;;;8.63;;
6973;SDS011;3527;52.376;8.990;2023-02-28T00:55:21;14.60;;;8.73;;
6973;SDS011;3527;52.376;8.990;2023-02-28T00:57:47;14.60;;;8.27;;
6973;SDS011;3527;52.376;8.990;2023-02-28T01:00:14;15.03;;;8.17;;
6973;SDS011;3527;52.376;8.990;2023-02-28T01:02:41;11.57;;;7.80;;
6973;SDS011;3527;52.376;8.990;2023-02-28T01:05:08;12.97;;;8.20;;
6973;SDS011;3527;52.376;8.990;2023-02-28T01:07:35;14.30;;;9.10;;
6973;SDS011;3527;52.376;8.990;2023-02-28T01:10:02;13.97;;;8.53;;
6973;SDS011;3527;52.376;8.990;2023-02-28T01:12:29;13.93;;;8.90;;
6973;SDS011;3527;52.376;8.990;2023-02-28T01:14:56;15.90;;;9.47;;
6973;SDS011;3527;52.376;8.990;2023-02-28T01:17:24;13.37;;;8.90;;
6973;SDS011;3527;52.376;8.990;2023-02-28T01:19:52;14.93;;;9.63;;
6973;SDS011;3527;52.376;8.990;2023-02-28T01:22:20;13.53;;;9.70;;
6973;SDS011;3527;52.376;8.990;2023-02-28T01:24:47;16.07;;;9.43;;
6973;SDS011;3527;52.376;8.990;2023-02-28T01:27:14;13.37;;;9.10;;
6973;SDS011;3527;52.376;8.990;2023-02-28T01:29:41;14.80;;;8.57;;
6973;SDS011;3527;52.376;8.990;2023-02-28T01:32:08;13.63;;;9.33;;
6973;SDS011;3527;52.376;8.990;2023-02-28T01:34:35;18.07;;;8.47;;
6973;SDS011;3527;52.376;8.990;2023-02-28T01:37:02;14.97;;;9.33;;
6973;SDS011;3527;52.376;8.990;2023-02-28T01:39:29;13.90;;;8.97;;
6973;SDS011;3527;52.376;8.990;2023-02-28T01:41:56;13.93;;;9.10;;
6973;SDS011;3527;52.376;8.990;2023-02-28T01:47:29;13.63;;;9.10;;
6973;SDS011;3527;52.376;8.990;2023-02-28T01:50:01;13.07;;;8.30;;
6973;SDS011;3527;52.376;8.990;2023-02-28T01:52:30;13.80;;;9.33;;
6973;SDS011;3527;52.376;8.990;2023-02-28T01:54:59;14.23;;;8.97;;
6973;SDS011;3527;52.376;8.990;2023-02-28T01:57:29;15.30;;;8.23;;
6973;SDS011;3527;52.376;8.990;2023-02-28T02:00:10;14.47;;;9.27;;
6973;SDS011;3527;52.376;8.990;2023-02-28T02:02:42;12.57;;;8.33;;
6973;SDS011;3527;52.376;8.990;2023-02-28T02:05:15;12.97;;;8.43;;
6973;SDS011;3527;52.376;8.990;2023-02-28T02:08:04;11.77;;;8.10;;
6973;SDS011;3527;52.376;8.990;2023-02-28T02:18:38;13.87;;;7.93;;
6973;SDS011;3527;52.376;8.990;2023-02-28T02:32:23;13.97;;;8.30;;
6973;SDS011;3527;52.376;8.990;2023-02-28T02:35:12;12.57;;;8.80;;
6973;SDS011;3527;52.376;8.990;2023-02-28T02:37:51;11.17;;;8.43;;
6973;SDS011;3527;52.376;8.990;2023-02-28T02:40:30;12.50;;;7.63;;
6973;SDS011;3527;52.376;8.990;2023-02-28T02:43:15;12.73;;;8.37;;
6973;SDS011;3527;52.376;8.990;2023-02-28T02:45:47;14.57;;;8.67;;
6973;SDS011;3527;52.376;8.990;2023-02-28T02:48:20;15.50;;;8.90;;
6973;SDS011;3527;52.376;8.990;2023-02-28T02:50:54;14.40;;;8.57;;
6973;SDS011;3527;52.376;8.990;2023-02-28T02:53:57;12.10;;;8.07;;
6973;SDS011;3527;52.376;8.990;2023-02-28T02:56:27;11.30;;;8.87;;
6973;SDS011;3527;52.376;8.990;2023-02-28T02:58:56;13.03;;;7.93;;
6973;SDS011;3527;52.376;8.990;2023-02-28T03:01:29;10.90;;;7.70;;
6973;SDS011;3527;52.376;8.990;2023-02-28T03:03:59;12.83;;;7.67;;
6973;SDS011;3527;52.376;8.990;2023-02-28T03:06:29;13.90;;;8.87;;
6973;SDS011;3527;52.376;8.990;2023-02-28T03:08:56;12.20;;;8.30;;
6973;SDS011;3527;52.376;8.990;2023-02-28T03:11:22;16.80;;;9.43;;
6973;SDS011;3527;52.376;8.990;2023-02-28T03:27:45;18.00;;;9.60;;
6973;SDS011;3527;52.376;8.990;2023-02-28T03:33:25;13.33;;;9.23;;
6973;SDS011;3527;52.376;8.990;2023-02-28T03:35:58;12.60;;;9.27;;
6973;SDS011;3527;52.376;8.990;2023-02-28T03:38:36;14.83;;;9.03;;
6973;SDS011;3527;52.376;8.990;2023-02-28T03:43:55;13.20;;;8.83;;
6973;SDS011;3527;52.376;8.990;2023-02-28T03:46:27;14.10;;;8.20;;
6973;SDS011;3527;52.376;8.990;2023-02-28T03:49:10;13.10;;;9.60;;
6973;SDS011;3527;52.376;8.990;2023-02-28T03:51:43;12.60;;;8.27;;
6973;SDS011;3527;52.376;8.990;2023-02-28T03:54:13;13.80;;;9.03;;
6973;SDS011;3527;52.376;8.990;2023-02-28T03:56:49;13.03;;;9.07;;
6973;SDS011;3527;52.376;8.990;2023-02-28T03:59:21;14.00;;;9.10;;
6973;SDS011;3527;52.376;8.990;2023-02-28T04:01:55;15.07;;;9.60;;
6973;SDS011;3527;52.376;8.990;2023-02-28T04:04:24;16.37;;;9.60;;
6973;SDS011;3527;52.376;8.990;2023-02-28T04:06:51;15.10;;;9.53;;
6973;SDS011;3527;52.376;8.990;2023-02-28T04:09:19;14.40;;;9.60;;
6973;SDS011;3527;52.376;8.990;2023-02-28T04:11:50;12.03;;;8.60;;
6973;SDS011;3527;52.376;8.990;2023-02-28T04:14:18;15.87;;;9.10;;
6973;SDS011;3527;52.376;8.990;2023-02-28T04:16:45;16.20;;;9.80;;
6973;SDS011;3527;52.376;8.990;2023-02-28T04:19:12;12.03;;;8.83;;
6973;SDS011;3527;52.376;8.990;2023-02-28T04:21:40;16.23;;;10.33;;
6973;SDS011;3527;52.376;8.990;2023-02-28T04:24:10;18.40;;;9.47;;
6973;SDS011;3527;52.376;8.990;2023-02-28T04:26:46;16.90;;;10.73;;
6973;SDS011;3527;52.376;8.990;2023-02-28T04:29:19;16.10;;;9.30;;
6973;SDS011;3527;52.376;8.990;2023-02-28T04:31:56;15.20;;;9.57;;
6973;SDS011;3527;52.376;8.990;2023-02-28T04:34:25;14.37;;;10.53;;
6973;SDS011;3527;52.376;8.990;2023-02-28T04:36:53;14.53;;;9.60;;
6973;SDS011;3527;52.376;8.990;2023-02-28T04:39:37;15.90;;;9.67;;
6973;SDS011;3527;52.376;8.990;2023-02-28T04:42:05;17.53;;;10.57;;
6973;SDS011;3527;52.376;8.990;2023-02-28T04:44:32;14.87;;;11.10;;
6973;SDS011;3527;52.376;8.990;2023-02-28T04:46:58;17.10;;;11.40;;
6973;SDS011;3527;52.376;8.990;2023-02-28T04:49:25;18.90;;;11.57;;
6973;SDS011;3527;52.376;8.990;2023-02-28T04:51:52;21.27;;;11.40;;
6973;SDS011;3527;52.376;8.990;2023-02-28T04:54:19;22.00;;;12.37;;
6973;SDS011;3527;52.376;8.990;2023-02-28T04:56:46;18.13;;;11.87;;
6973;SDS011;3527;52.376;8.990;2023-02-28T04:59:14;19.63;;;12.00;;
6973;SDS011;3527;52.376;8.990;2023-02-28T05:01:44;19.30;;;11.77;;
6973;SDS011;3527;52.376;8.990;2023-02-28T05:04:12;19.50;;;10.60;;
6973;SDS011;3527;52.376;8.990;2023-02-28T05:06:39;19.53;;;12.50;;
6973;SDS011;3527;52.376;8.990;2023-02-28T05:09:06;21.33;;;12.73;;
6973;SDS011;3527;52.376;8.990;2023-02-28T05:11:33;16.17;;;11.20;;
6973;SDS011;3527;52.376;8.990;2023-02-28T05:14:06;15.60;;;11.40;;
6973;SDS011;3527;52.376;8.990;2023-02-28T05:16:36;18.90;;;11.80;;
6973;SDS011;3527;52.376;8.990;2023-02-28T05:19:03;18.70;;;11.73;;
6973;SDS011;3527;52.376;8.990;2023-02-28T05:21:34;17.53;;;10.77;;
6973;SDS011;3527;52.376;8.990;2023-02-28T05:24:03;21.90;;;11.93;;
6973;SDS011;3527;52.376;8.990;2023-02-28T05:26:34;19.00;;;12.10;;
6973;SDS011;3527;52.376;8.990;2023-02-28T05:29:02;18.07;;;11.27;;
6973;SDS011;3527;52.376;8.990;2023-02-28T05:31:28;19.50;;;11.73;;
6973;SDS011;3527;52.376;8.990;2023-02-28T05:33:56;19.10;;;11.60;;
6973;SDS011;3527;52.376;8.990;2023-02-28T05:36:23;15.57;;;10.40;;
6973;SDS011;3527;52.376;8.990;2023-02-28T05:38:50;14.57;;;10.10;;
6973;SDS011;3527;52.376;8.990;2023-02-28T05:41:18;17.07;;;11.80;;
6973;SDS011;3527;52.376;8.990;2023-02-28T05:43:48;17.20;;;10.97;;
6973;SDS011;3527;52.376;8.990;2023-02-28T05:46:15;16.60;;;10.60;;
6973;SDS011;3527;52.376;8.990;2023-02-28T05:48:42;16.13;;;10.53;;
6973;SDS011;3527;52.376;8.990;2023-02-28T05:51:12;16.93;;;10.10;;
6973;SDS011;3527;52.376;8.990;2023-02-28T05:53:39;18.90;;;11.30;;
6973;SDS011;3527;52.376;8.990;2023-02-28T05:56:06;18.77;;;10.97;;
6973;SDS011;3527;52.376;8.990;2023-02-28T05:58:32;16.50;;;10.53;;
6973;SDS011;3527;52.376;8.990;2023-02-28T06:01:18;17.33;;;10.67;;
6973;SDS011;3527;52.376;8.990;2023-02-28T06:03:49;19.73;;;11.93;;
6973;SDS011;3527;52.376;8.990;2023-02-28T06:06:15;16.20;;;10.23;;
6973;SDS011;3527;52.376;8.990;2023-02-28T06:08:42;16.07;;;10.53;;
6973;SDS011;3527;52.376;8.990;2023-02-28T06:18:35;21.20;;;12.50;;
6973;SDS011;3527;52.376;8.990;2023-02-28T06:21:02;18.33;;;12.30;;
6973;SDS011;3527;52.376;8.990;2023-02-28T06:23:29;22.13;;;12.43;;
6973;SDS011;3527;52.376;8.990;2023-02-28T06:25:56;19.37;;;12.20;;
6973;SDS011;3527;52.376;8.990;2023-02-28T06:28:25;20.77;;;12.33;;
6973;SDS011;3527;52.376;8.990;2023-02-28T06:30:52;18.90;;;12.03;;
6973;SDS011;3527;52.376;8.990;2023-02-28T06:33:19;20.07;;;12.97;;
6973;SDS011;3527;52.376;8.990;2023-02-28T06:35:46;17.43;;;12.47;;
6973;SDS011;3527;52.376;8.990;2023-02-28T06:38:16;22.03;;;13.83;;
6973;SDS011;3527;52.376;8.990;2023-02-28T06:40:44;22.13;;;13.97;;
6973;SDS011;3527;52.376;8.990;2023-02-28T06:43:18;22.50;;;13.10;;
6973;SDS011;3527;52.376;8.990;2023-02-28T06:45:45;14.63;;;10.47;;
6973;SDS011;3527;52.376;8.990;2023-02-28T06:48:12;18.80;;;12.77;;
6973;SDS011;3527;52.376;8.990;2023-02-28T06:50:39;21.90;;;12.33;;
6973;SDS011;3527;52.376;8.990;2023-02-28T06:53:06;25.07;;;12.40;;
6973;SDS011;3527;52.376;8.990;2023-02-28T06:55:32;23.27;;;12.77;;
6973;SDS011;3527;52.376;8.990;2023-02-28T06:57:59;21.03;;;12.80;;
6973;SDS011;3527;52.376;8.990;2023-02-28T07:00:26;21.17;;;13.10;;
6973;SDS011;3527;52.376;8.990;2023-02-28T07:02:52;24.30;;;14.43;;
6973;SDS011;3527;52.376;8.990;2023-02-28T07:05:21;21.00;;;14.23;;
6973;SDS011;3527;52.376;8.990;2023-02-28T07:07:48;19.40;;;13.23;;
6973;SDS011;3527;52.376;8.990;2023-02-28T07:10:15;21.27;;;13.90;;
6973;SDS011;3527;52.376;8.990;2023-02-28T07:12:45;23.53;;;14.07;;
6973;SDS011;3527;52.376;8.990;2023-02-28T07:15:12;21.00;;;14.30;;
6973;SDS011;3527;52.376;8.990;2023-02-28T07:17:39;29.40;;;13.93;;
6973;SDS011;3527;52.376;8.990;2023-02-28T07:20:06;24.10;;;14.57;;
6973;SDS011;3527;52.376;8.990;2023-02-28T07:22:34;21.30;;;13.70;;
6973;SDS011;3527;52.376;8.990;2023-02-28T07:25:01;26.23;;;14.80;;
6973;SDS011;3527;52.376;8.990;2023-02-28T07:27:28;27.27;;;14.77;;
6973;SDS011;3527;52.376;8.990;2023-02-28T07:29:55;27.37;;;14.30;;
6973;SDS011;3527;52.376;8.990;2023-02-28T07:32:22;26.53;;;14.43;;
6973;SDS011;3527;52.376;8.990;2023-02-28T07:34:50;22.77;;;15.03;;
6973;SDS011;3527;52.376;8.990;2023-02-28T07:37:17;23.93;;;15.30;;
6973;SDS011;3527;52.376;8.990;2023-02-28T07:39:44;26.77;;;15.60;;
6973;SDS011;3527;52.376;8.990;2023-02-28T07:42:11;23.13;;;14.80;;
6973;SDS011;3527;52.376;8.990;2023-02-28T07:44:39;22.80;;;15.63;;
6973;SDS011;3527;52.376;8.990;2023-02-28T07:47:07;22.87;;;15.20;;
6973;SDS011;3527;52.376;8.990;2023-02-28T07:49:38;22.20;;;14.70;;
6973;SDS011;3527;52.376;8.990;2023-02-28T07:52:05;24.57;;;17.97;;
6973;SDS011;3527;52.376;8.990;2023-02-28T07:54:33;28.70;;;18.17;;
6973;SDS011;3527;52.376;8.990;2023-02-28T07:57:00;26.97;;;17.73;;
6973;SDS011;3527;52.376;8.990;2023-02-28T07:59:27;29.13;;;20.03;;
6973;SDS011;3527;52.376;8.990;2023-02-28T08:01:57;25.80;;;16.53;;
6973;SDS011;3527;52.376;8.990;2023-02-28T08:04:25;25.60;;;18.03;;
6973;SDS011;3527;52.376;8.990;2023-02-28T08:06:52;22.13;;;17.67;;
6973;SDS011;3527;52.376;8.990;2023-02-28T08:09:19;22.50;;;17.43;;
6973;SDS011;3527;52.376;8.990;2023-02-28T08:11:46;22.87;;;16.30;;
6973;SDS011;3527;52.376;8.990;2023-02-28T08:14:13;23.03;;;16.60;;
6973;SDS011;3527;52.376;8.990;2023-02-28T08:16:40;23.40;;;15.67;;
6973;SDS011;3527;52.376;8.990;2023-02-28T08:19:09;20.00;;;16.50;;
6973;SDS011;3527;52.376;8.990;2023-02-28T08:21:36;19.27;;;14.27;;
6973;SDS011;3527;52.376;8.990;2023-02-28T08:24:03;18.93;;;14.13;;
6973;SDS011;3527;52.376;8.990;2023-02-28T08:26:30;19.67;;;13.87;;
6973;SDS011;3527;52.376;8.990;2023-02-28T08:28:57;16.80;;;13.50;;
6973;SDS011;3527;52.376;8.990;2023-02-28T08:31:26;16.57;;;12.17;;
6973;SDS011;3527;52.376;8.990;2023-02-28T08:33:54;14.20;;;11.77;;
6973;SDS011;3527;52.376;8.990;2023-02-28T08:36:23;14.23;;;11.07;;
6973;SDS011;3527;52.376;8.990;2023-02-28T08:38:50;17.77;;;11.10;;
6973;SDS011;3527;52.376;8.990;2023-02-28T08:41:16;14.70;;;10.43;;
6973;SDS011;3527;52.376;8.990;2023-02-28T08:43:43;16.43;;;10.47;;
6973;SDS011;3527;52.376;8.990;2023-02-28T08:46:11;14.57;;;9.57;;
6973;SDS011;3527;52.376;8.990;2023-02-28T08:48:40;15.33;;;9.47;;
6973;SDS011;3527;52.376;8.990;2023-02-28T08:51:09;13.90;;;9.53;;
6973;SDS011;3527;52.376;8.990;2023-02-28T08:53:38;13.57;;;8.90;;
6973;SDS011;3527;52.376;8.990;2023-02-28T08:56:10;13.40;;;9.20;;
6973;SDS011;3527;52.376;8.990;2023-02-28T08:58:39;11.77;;;7.90;;
6973;SDS011;3527;52.376;8.990;2023-02-28T09:01:08;11.63;;;7.10;;
6973;SDS011;3527;52.376;8.990;2023-02-28T09:03:39;11.43;;;7.60;;
6973;SDS011;3527;52.376;8.990;2023-02-28T09:06:08;8.97;;;7.10;;
6973;SDS011;3527;52.376;8.990;2023-02-28T09:08:36;11.17;;;7.57;;
6973;SDS011;3527;52.376;8.990;2023-02-28T09:11:03;9.13;;;7.23;;
6973;SDS011;3527;52.376;8.990;2023-02-28T09:13:30;13.20;;;7.40;;
6973;SDS011;3527;52.376;8.990;2023-02-28T09:15:59;9.27;;;7.63;;
6973;SDS011;3527;52.376;8.990;2023-02-28T09:18:27;9.40;;;6.60;;
6973;SDS011;3527;52.376;8.990;2023-02-28T09:20:55;10.63;;;6.77;;
6973;SDS011;3527;52.376;8.990;2023-02-28T09:23:22;9.97;;;6.60;;
6973;SDS011;3527;52.376;8.990;2023-02-28T09:25:50;8.70;;;6.23;;
6973;SDS011;3527;52.376;8.990;2023-02-28T09:28:18;9.07;;;6.17;;
6973;SDS011;3527;52.376;8.990;2023-02-28T09:30:47;8.80;;;6.03;;
6973;SDS011;3527;52.376;8.990;2023-02-28T09:33:17;7.30;;;5.70;;
6973;SDS011;3527;52.376;8.990;2023-02-28T09:35:47;6.67;;;4.50;;
6973;SDS011;3527;52.376;8.990;2023-02-28T09:38:15;7.77;;;5.37;;
6973;SDS011;3527;52.376;8.990;2023-02-28T09:40:49;7.40;;;4.80;;
6973;SDS011;3527;52.376;8.990;2023-02-28T09:43:23;10.60;;;5.00;;
6973;SDS011;3527;52.376;8.990;2023-02-28T09:45:57;7.20;;;5.20;;
6973;SDS011;3527;52.376;8.990;2023-02-28T09:48:33;7.57;;;4.77;;
6973;SDS011;3527;52.376;8.990;2023-02-28T09:51:22;6.13;;;4.73;;
6973;SDS011;3527;52.376;8.990;2023-02-28T09:53:51;5.87;;;4.93;;
6973;SDS011;3527;52.376;8.990;2023-02-28T09:56:36;7.17;;;4.97;;
6973;SDS011;3527;52.376;8.990;2023-02-28T10:07:13;5.43;;;3.80;;
6973;SDS011;3527;52.376;8.990;2023-02-28T10:10:04;5.13;;;3.93;;
6973;SDS011;3527;52.376;8.990;2023-02-28T10:12:41;6.07;;;3.77;;
6973;SDS011;3527;52.376;8.990;2023-02-28T10:15:14;5.10;;;2.83;;
6973;SDS011;3527;52.376;8.990;2023-02-28T10:17:43;4.23;;;3.37;;
6973;SDS011;3527;52.376;8.990;2023-02-28T10:20:35;6.23;;;3.80;;
6973;SDS011;3527;52.376;8.990;2023-02-28T10:23:24;5.40;;;2.90;;
6973;SDS011;3527;52.376;8.990;2023-02-28T10:25:57;5.47;;;3.00;;
6973;SDS011;3527;52.376;8.990;2023-02-28T10:28:26;4.37;;;2.80;;
6973;SDS011;3527;52.376;8.990;2023-02-28T10:30:55;4.13;;;2.70;;
6973;SDS011;3527;52.376;8.990;2023-02-28T10:33:33;5.53;;;2.30;;
6973;SDS011;3527;52.376;8.990;2023-02-28T10:36:02;5.57;;;2.37;;
6973;SDS011;3527;52.376;8.990;2023-02-28T10:38:34;4.33;;;2.80;;
6973;SDS011;3527;52.376;8.990;2023-02-28T10:41:14;3.37;;;2.23;;
6973;SDS011;3527;52.376;8.990;2023-02-28T10:44:22;4.57;;;1.90;;
6973;SDS011;3527;52.376;8.990;2023-02-28T10:46:50;3.23;;;2.23;;
6973;SDS011;3527;52.376;8.990;2023-02-28T10:49:24;4.57;;;2.07;;
6973;SDS011;3527;52.376;8.990;2023-02-28T10:51:58;2.27;;;1.80;;
6973;SDS011;3527;52.376;8.990;2023-02-28T10:57:05;3.50;;;2.40;;
6973;SDS011;3527;52.376;8.990;2023-02-28T10:59:35;3.87;;;2.53;;
6973;SDS011;3527;52.376;8.990;2023-02-28T11:02:08;2.93;;;2.43;;
6973;SDS011;3527;52.376;8.990;2023-02-28T11:04:56;3.97;;;2.60;;
6973;SDS011;3527;52.376;8.990;2023-02-28T11:07:23;4.30;;;2.50;;
6973;SDS011;3527;52.376;8.990;2023-02-28T11:09:56;3.67;;;2.00;;
6973;SDS011;3527;52.376;8.990;2023-02-28T11:12:34;3.97;;;2.30;;
6973;SDS011;3527;52.376;8.990;2023-02-28T11:15:26;3.23;;;2.17;;
6973;SDS011;3527;52.376;8.990;2023-02-28T11:20:22;3.77;;;2.50;;
6973;SDS011;3527;52.376;8.990;2023-02-28T11:22:51;5.33;;;2.70;;
6973;SDS011;3527;52.376;8.990;2023-02-28T11:27:52;3.83;;;2.60;;
6973;SDS011;3527;52.376;8.990;2023-02-28T11:33:30;4.30;;;2.00;;
6973;SDS011;3527;52.376;8.990;2023-02-28T11:36:01;3.30;;;2.00;;
6973;SDS011;3527;52.376;8.990;2023-02-28T11:38:31;3.07;;;1.80;;
6973;SDS011;3527;52.376;8.990;2023-02-28T11:46:49;3.17;;;2.80;;
6973;SDS011;3527;52.376;8.990;2023-02-28T11:52:06;4.33;;;2.83;;
6973;SDS011;3527;52.376;8.990;2023-02-28T11:54:59;5.17;;;2.63;;
6973;SDS011;3527;52.376;8.990;2023-02-28T12:03:22;4.67;;;2.80;;
6973;SDS011;3527;52.376;8.990;2023-02-28T12:23:19;3.87;;;2.80;;
6973;SDS011;3527;52.376;8.990;2023-02-28T12:26:41;2.50;;;2.17;;
6973;SDS011;3527;52.376;8.990;2023-02-28T12:28:54;3.13;;;2.00;;
6973;SDS011;3527;52.376;8.990;2023-02-28T12:31:29;4.70;;;2.30;;
6973;SDS011;3527;52.376;8.990;2023-02-28T12:34:45;3.10;;;2.23;;
6973;SDS011;3527;52.376;8.990;2023-02-28T12:36:55;4.67;;;2.30;;
6973;SDS011;3527;52.376;8.990;2023-02-28T12:39:33;2.57;;;2.10;;
6973;SDS011;3527;52.376;8.990;2023-02-28T12:44:49;2.57;;;2.00;;
6973;SDS011;3527;52.376;8.990;2023-02-28T12:47:20;3.67;;;2.33;;
6973;SDS011;3527;52.376;8.990;2023-02-28T12:58:06;4.70;;;1.87;;
6973;SDS011;3527;52.376;8.990;2023-02-28T13:00:35;2.23;;;1.60;;
6973;SDS011;3527;52.376;8.990;2023-02-28T13:08:53;3.77;;;1.63;;
6973;SDS011;3527;52.376;8.990;2023-02-28T13:11:42;2.00;;;1.60;;
6973;SDS011;3527;52.376;8.990;2023-02-28T13:14:22;2.67;;;1.90;;
6973;SDS011;3527;52.376;8.990;2023-02-28T13:16:58;5.20;;;2.00;;
6973;SDS011;3527;52.376;8.990;2023-02-28T13:19:29;2.73;;;2.13;;
6973;SDS011;3527;52.376;8.990;2023-02-28T13:21:57;3.30;;;1.60;;
6973;SDS011;3527;52.376;8.990;2023-02-28T13:24:49;4.23;;;2.20;;
6973;SDS011;3527;52.376;8.990;2023-02-28T13:38:35;1.90;;;1.53;;
6973;SDS011;3527;52.376;8.990;2023-02-28T13:44:04;3.47;;;2.13;;
6973;SDS011;3527;52.376;8.990;2023-02-28T13:46:34;2.37;;;1.90;;
6973;SDS011;3527;52.376;8.990;2023-02-28T13:57:28;2.70;;;1.80;;
6973;SDS011;3527;52.376;8.990;2023-02-28T14:05:23;3.90;;;2.03;;
6973;SDS011;3527;52.376;8.990;2023-02-28T14:07:57;4.30;;;2.10;;
6973;SDS011;3527;52.376;8.990;2023-02-28T14:10:27;3.10;;;1.80;;
6973;SDS011;3527;52.376;8.990;2023-02-28T14:12:59;3.20;;;1.77;;
6973;SDS011;3527;52.376;8.990;2023-02-28T14:18:29;2.10;;;1.70;;
6973;SDS011;3527;52.376;8.990;2023-02-28T14:20:58;2.70;;;1.97;;
6973;SDS011;3527;52.376;8.990;2023-02-28T14:34:43;2.93;;;1.70;;
6973;SDS011;3527;52.376;8.990;2023-02-28T14:37:19;6.20;;;2.03;;
6973;SDS011;3527;52.376;8.990;2023-02-28T14:39:51;3.17;;;1.90;;
6973;SDS011;3527;52.376;8.990;2023-02-28T14:42:29;2.43;;;1.70;;
6973;SDS011;3527;52.376;8.990;2023-02-28T14:44:56;4.63;;;2.13;;
6973;SDS011;3527;52.376;8.990;2023-02-28T14:47:28;3.17;;;1.77;;
6973;SDS011;3527;52.376;8.990;2023-02-28T14:49:59;4.60;;;2.00;;
6973;SDS011;3527;52.376;8.990;2023-02-28T14:52:28;3.60;;;1.97;;
6973;SDS011;3527;52.376;8.990;2023-02-28T14:57:33;3.30;;;1.97;;
6973;SDS011;3527;52.376;8.990;2023-02-28T15:00:21;2.53;;;1.80;;
6973;SDS011;3527;52.376;8.990;2023-02-28T15:02:48;3.70;;;1.80;;
6973;SDS011;3527;52.376;8.990;2023-02-28T15:05:21;2.90;;;1.77;;
6973;SDS011;3527;52.376;8.990;2023-02-28T15:08:00;3.37;;;1.97;;
6973;SDS011;3527;52.376;8.990;2023-02-28T15:13:48;3.37;;;2.10;;
6973;SDS011;3527;52.376;8.990;2023-02-28T15:16:18;3.07;;;1.80;;
6973;SDS011;3527;52.376;8.990;2023-02-28T15:21:34;2.93;;;1.90;;
6973;SDS011;3527;52.376;8.990;2023-02-28T15:24:04;3.40;;;2.10;;
6973;SDS011;3527;52.376;8.990;2023-02-28T15:26:33;3.03;;;2.07;;
6973;SDS011;3527;52.376;8.990;2023-02-28T15:29:06;2.63;;;2.10;;
6973;SDS011;3527;52.376;8.990;2023-02-28T15:31:41;5.27;;;2.17;;
6973;SDS011;3527;52.376;8.990;2023-02-28T15:34:39;3.17;;;2.30;;
6973;SDS011;3527;52.376;8.990;2023-02-28T15:40:10;2.47;;;1.97;;
6973;SDS011;3527;52.376;8.990;2023-02-28T15:42:41;4.67;;;2.30;;
6973;SDS011;3527;52.376;8.990;2023-02-28T15:48:01;3.03;;;2.33;;
6973;SDS011;3527;52.376;8.990;2023-02-28T15:50:39;4.40;;;2.10;;
6973;SDS011;3527;52.376;8.990;2023-02-28T15:53:09;4.10;;;2.30;;
6973;SDS011;3527;52.376;8.990;2023-02-28T15:55:40;5.13;;;2.20;;
6973;SDS011;3527;52.376;8.990;2023-02-28T15:58:08;2.93;;;2.10;;
6973;SDS011;3527;52.376;8.990;2023-02-28T16:00:39;3.37;;;2.10;;
6973;SDS011;3527;52.376;8.990;2023-02-28T16:03:27;3.93;;;2.40;;
6973;SDS011;3527;52.376;8.990;2023-02-28T16:06:08;2.90;;;2.00;;
6973;SDS011;3527;52.376;8.990;2023-02-28T16:08:44;4.37;;;2.30;;
6973;SDS011;3527;52.376;8.990;2023-02-28T16:11:11;6.90;;;2.80;;
6973;SDS011;3527;52.376;8.990;2023-02-28T16:13:38;3.53;;;2.30;;
6973;SDS011;3527;52.376;8.990;2023-02-28T16:16:05;3.50;;;2.30;;
6973;SDS011;3527;52.376;8.990;2023-02-28T16:18:31;3.20;;;2.20;;
6973;SDS011;3527;52.376;8.990;2023-02-28T16:20:58;4.10;;;2.40;;
6973;SDS011;3527;52.376;8.990;2023-02-28T16:23:25;3.90;;;2.33;;
6973;SDS011;3527;52.376;8.990;2023-02-28T16:25:52;3.63;;;2.27;;
6973;SDS011;3527;52.376;8.990;2023-02-28T16:28:20;3.40;;;2.33;;
6973;SDS011;3527;52.376;8.990;2023-02-28T16:30:53;3.87;;;2.20;;
6973;SDS011;3527;52.376;8.990;2023-02-28T16:33:20;3.57;;;2.00;;
6973;SDS011;3527;52.376;8.990;2023-02-28T16:35:47;3.70;;;2.00;;
6973;SDS011;3527;52.376;8.990;2023-02-28T16:38:13;3.30;;;2.30;;
6973;SDS011;3527;52.376;8.990;2023-02-28T16:40:40;3.07;;;2.13;;
6973;SDS011;3527;52.376;8.990;2023-02-28T16:43:09;4.00;;;2.43;;
6973;SDS011;3527;52.376;8.990;2023-02-28T16:45:42;3.40;;;2.13;;
6973;SDS011;3527;52.376;8.990;2023-02-28T16:48:14;5.10;;;2.27;;
6973;SDS011;3527;52.376;8.990;2023-02-28T16:50:42;5.87;;;2.40;;
6973;SDS011;3527;52.376;8.990;2023-02-28T16:53:13;3.20;;;2.00;;
6973;SDS011;3527;52.376;8.990;2023-02-28T16:55:39;3.70;;;2.10;;
6973;SDS011;3527;52.376;8.990;2023-02-28T16:58:10;3.53;;;1.97;;
6973;SDS011;3527;52.376;8.990;2023-02-28T17:00:41;3.23;;;2.30;;
6973;SDS011;3527;52.376;8.990;2023-02-28T17:03:11;3.23;;;2.50;;
6973;SDS011;3527;52.376;8.990;2023-02-28T17:05:58;6.60;;;2.43;;
6973;SDS011;3527;52.376;8.990;2023-02-28T17:08:25;5.57;;;2.30;;
6973;SDS011;3527;52.376;8.990;2023-02-28T17:10:51;3.67;;;2.27;;
6973;SDS011;3527;52.376;8.990;2023-02-28T17:13:18;4.10;;;2.37;;
6973;SDS011;3527;52.376;8.990;2023-02-28T17:15:45;4.50;;;2.90;;
6973;SDS011;3527;52.376;8.990;2023-02-28T17:18:16;6.43;;;2.60;;
6973;SDS011;3527;52.376;8.990;2023-02-28T17:20:46;4.40;;;2.13;;
6973;SDS011;3527;52.376;8.990;2023-02-28T17:23:13;4.60;;;2.63;;
6973;SDS011;3527;52.376;8.990;2023-02-28T17:25:40;3.87;;;2.20;;
6973;SDS011;3527;52.376;8.990;2023-02-28T17:28:08;3.27;;;2.27;;
6973;SDS011;3527;52.376;8.990;2023-02-28T17:30:35;3.70;;;2.10;;
6973;SDS011;3527;52.376;8.990;2023-02-28T17:33:02;3.70;;;2.40;;
6973;SDS011;3527;52.376;8.990;2023-02-28T17:35:29;6.50;;;2.37;;
6973;SDS011;3527;52.376;8.990;2023-02-28T17:37:56;3.67;;;2.50;;
6973;SDS011;3527;52.376;8.990;2023-02-28T17:40:22;7.37;;;2.50;;
6973;SDS011;3527;52.376;8.990;2023-02-28T17:42:50;4.47;;;2.33;;
6973;SDS011;3527;52.376;8.990;2023-02-28T17:45:18;5.03;;;2.90;;
6973;SDS011;3527;52.376;8.990;2023-02-28T17:47:47;5.43;;;2.87;;
6973;SDS011;3527;52.376;8.990;2023-02-28T17:50:17;4.67;;;2.53;;
6973;SDS011;3527;52.376;8.990;2023-02-28T17:52:45;7.03;;;3.03;;
6973;SDS011;3527;52.376;8.990;2023-02-28T17:55:12;5.53;;;2.70;;
6973;SDS011;3527;52.376;8.990;2023-02-28T17:57:40;5.90;;;2.90;;
6973;SDS011;3527;52.376;8.990;2023-02-28T18:00:10;4.97;;;2.93;;
6973;SDS011;3527;52.376;8.990;2023-02-28T18:02:39;4.17;;;2.80;;
6973;SDS011;3527;52.376;8.990;2023-02-28T18:05:06;5.53;;;3.20;;
6973;SDS011;3527;52.376;8.990;2023-02-28T18:07:34;5.87;;;3.33;;
6973;SDS011;3527;52.376;8.990;2023-02-28T18:10:02;4.53;;;2.97;;
6973;SDS011;3527;52.376;8.990;2023-02-28T18:12:29;5.53;;;3.07;;
6973;SDS011;3527;52.376;8.990;2023-02-28T18:14:57;4.37;;;2.70;;
6973;SDS011;3527;52.376;8.990;2023-02-28T18:17:24;3.93;;;2.70;;
6973;SDS011;3527;52.376;8.990;2023-02-28T18:19:51;6.83;;;3.37;;